This is the latest recevied weather packets stored in our database for station/object R8AHC-W2. If no packets are shown the sender has not sent any weather packets the latest 10 day(s).
| Time | Temp. | Humidity | Pressure | Rain* | Wind** | Luminosity | Snow |
|---|---|---|---|---|---|---|---|
| 1778194623 | 9.44° C | 63% | 1011 hPa | - | 1.79 m/s, 39° | - | - |
| 1778191022 | 10.56° C | 63% | 1011 hPa | - | 1.79 m/s, 39° | - | - |
| 1778187422 | 11.67° C | 63% | 1011 hPa | - | 1.79 m/s, 39° | - | - |
| 1778183821 | 12.78° C | 63% | 1011 hPa | - | 1.79 m/s, 39° | - | - |
| 1778180221 | 13.89° C | 63% | 1013 hPa | - | 1.79 m/s, 39° | - | - |
| 1778176622 | 15° C | 63% | 1012 hPa | - | 1.79 m/s, 39° | - | - |
| 1778173023 | 16.11° C | 63% | 1012 hPa | - | 1.79 m/s, 39° | - | - |
| 1778169423 | 17.22° C | 63% | 1012 hPa | - | 1.79 m/s, 39° | - | - |
| 1778165821 | 18.33° C | 63% | 1011 hPa | - | 1.79 m/s, 39° | - | - |
| 1778162222 | 16.67° C | 62% | 1011 hPa | - | 2.24 m/s, 320° | - | - |
| 1778158623 | 17.78° C | 62% | 1011 hPa | - | 2.24 m/s, 320° | - | - |
| 1778155022 | 18.89° C | 62% | 1011 hPa | - | 2.24 m/s, 320° | - | - |
| 1778151422 | 18.89° C | 39% | 1011 hPa | - | 2.68 m/s, 312° | - | - |
| 1778147821 | 20° C | 39% | 1011 hPa | - | 2.68 m/s, 312° | - | - |
| 1778144222 | 21.11° C | 39% | 1011 hPa | - | 2.68 m/s, 312° | - | - |
| 1778140622 | 22.22° C | 39% | 1011 hPa | - | 2.68 m/s, 312° | - | - |
| 1778137022 | 16.11° C | 51% | 1011 hPa | - | 1.79 m/s, 298° | - | - |
| 1778133422 | 17.22° C | 51% | 1011 hPa | - | 1.79 m/s, 298° | - | - |
| 1778129822 | 18.33° C | 51% | 1011 hPa | - | 1.79 m/s, 298° | - | - |
| 1778126221 | 13.89° C | 61% | 1011 hPa | - | 1.34 m/s, 286° | - | - |
| 1778122622 | 15° C | 61% | 1011 hPa | - | 1.34 m/s, 286° | - | - |
| 1778119022 | 9.44° C | 78% | 1011 hPa | - | 1.34 m/s, 202° | - | - |
| 1778115422 | 10.56° C | 78% | 1011 hPa | - | 1.34 m/s, 202° | - | - |
| 1778111822 | 6.67° C | 52% | 1011 hPa | - | 3.58 m/s, 161° | - | - |
| 1778108222 | 7.78° C | 52% | 1011 hPa | - | 3.58 m/s, 161° | - | - |
* Rain since midnight (hover to see other rain measurements)
** Current wind speed in m/s (hover to see current wind gust speed)